sensor_id;sensor_type;location;lat;lon;timestamp;P1;durP1;ratioP1;P2;durP2;ratioP2
77384;SDS011;66443;49.122;8.346;2023-04-24T00:00:07;4.50;;;1.70;;
77384;SDS011;66443;49.122;8.346;2023-04-24T00:02:37;1.90;;;1.77;;
77384;SDS011;66443;49.122;8.346;2023-04-24T00:05:05;3.43;;;1.60;;
77384;SDS011;66443;49.122;8.346;2023-04-24T00:07:31;2.70;;;1.53;;
77384;SDS011;66443;49.122;8.346;2023-04-24T00:09:56;2.23;;;1.50;;
77384;SDS011;66443;49.122;8.346;2023-04-24T00:12:21;1.83;;;1.70;;
77384;SDS011;66443;49.122;8.346;2023-04-24T00:14:46;1.73;;;1.63;;
77384;SDS011;66443;49.122;8.346;2023-04-24T00:17:12;2.07;;;1.57;;
77384;SDS011;66443;49.122;8.346;2023-04-24T00:19:37;1.93;;;1.73;;
77384;SDS011;66443;49.122;8.346;2023-04-24T00:22:02;1.60;;;1.50;;
77384;SDS011;66443;49.122;8.346;2023-04-24T00:24:27;4.80;;;2.33;;
77384;SDS011;66443;49.122;8.346;2023-04-24T00:26:52;5.07;;;1.33;;
77384;SDS011;66443;49.122;8.346;2023-04-24T00:29:18;1.80;;;1.60;;
77384;SDS011;66443;49.122;8.346;2023-04-24T00:31:43;1.40;;;1.30;;
77384;SDS011;66443;49.122;8.346;2023-04-24T00:34:08;3.77;;;1.50;;
77384;SDS011;66443;49.122;8.346;2023-04-24T00:36:33;1.87;;;1.37;;
77384;SDS011;66443;49.122;8.346;2023-04-24T00:38:58;6.17;;;1.23;;
77384;SDS011;66443;49.122;8.346;2023-04-24T00:41:27;2.73;;;1.30;;
77384;SDS011;66443;49.122;8.346;2023-04-24T00:43:52;2.23;;;1.10;;
77384;SDS011;66443;49.122;8.346;2023-04-24T00:46:17;1.67;;;1.40;;
77384;SDS011;66443;49.122;8.346;2023-04-24T00:48:43;1.77;;;1.23;;
77384;SDS011;66443;49.122;8.346;2023-04-24T00:51:09;1.33;;;1.20;;
77384;SDS011;66443;49.122;8.346;2023-04-24T00:53:34;2.33;;;1.50;;
77384;SDS011;66443;49.122;8.346;2023-04-24T00:55:59;1.27;;;1.17;;
77384;SDS011;66443;49.122;8.346;2023-04-24T00:58:24;1.57;;;1.47;;
77384;SDS011;66443;49.122;8.346;2023-04-24T01:00:50;1.57;;;1.37;;
77384;SDS011;66443;49.122;8.346;2023-04-24T01:03:18;2.27;;;1.30;;
77384;SDS011;66443;49.122;8.346;2023-04-24T01:05:43;1.20;;;1.07;;
77384;SDS011;66443;49.122;8.346;2023-04-24T01:08:08;1.57;;;1.17;;
77384;SDS011;66443;49.122;8.346;2023-04-24T01:10:34;1.33;;;1.13;;
77384;SDS011;66443;49.122;8.346;2023-04-24T01:12:59;1.37;;;1.20;;
77384;SDS011;66443;49.122;8.346;2023-04-24T01:15:25;1.23;;;1.20;;
77384;SDS011;66443;49.122;8.346;2023-04-24T01:17:50;1.53;;;1.43;;
77384;SDS011;66443;49.122;8.346;2023-04-24T01:20:15;1.30;;;1.17;;
77384;SDS011;66443;49.122;8.346;2023-04-24T01:22:42;1.37;;;1.27;;
77384;SDS011;66443;49.122;8.346;2023-04-24T01:28:10;1.17;;;1.13;;
77384;SDS011;66443;49.122;8.346;2023-04-24T01:30:35;1.50;;;1.40;;
77384;SDS011;66443;49.122;8.346;2023-04-24T01:33:00;3.10;;;1.33;;
77384;SDS011;66443;49.122;8.346;2023-04-24T01:35:26;1.53;;;1.43;;
77384;SDS011;66443;49.122;8.346;2023-04-24T01:37:51;1.47;;;1.30;;
77384;SDS011;66443;49.122;8.346;2023-04-24T01:40:16;3.47;;;1.40;;
77384;SDS011;66443;49.122;8.346;2023-04-24T01:42:41;1.30;;;1.13;;
77384;SDS011;66443;49.122;8.346;2023-04-24T01:45:07;1.53;;;1.20;;
77384;SDS011;66443;49.122;8.346;2023-04-24T01:47:35;1.50;;;1.40;;
77384;SDS011;66443;49.122;8.346;2023-04-24T01:50:00;1.80;;;1.50;;
77384;SDS011;66443;49.122;8.346;2023-04-24T01:52:25;1.90;;;1.30;;
77384;SDS011;66443;49.122;8.346;2023-04-24T01:54:52;4.90;;;2.07;;
77384;SDS011;66443;49.122;8.346;2023-04-24T01:57:17;1.47;;;1.23;;
77384;SDS011;66443;49.122;8.346;2023-04-24T01:59:42;1.53;;;1.43;;
77384;SDS011;66443;49.122;8.346;2023-04-24T02:02:07;1.70;;;1.60;;
77384;SDS011;66443;49.122;8.346;2023-04-24T02:04:32;1.90;;;1.33;;
77384;SDS011;66443;49.122;8.346;2023-04-24T02:06:58;1.90;;;1.80;;
77384;SDS011;66443;49.122;8.346;2023-04-24T02:09:23;5.07;;;1.70;;
77384;SDS011;66443;49.122;8.346;2023-04-24T02:11:48;1.37;;;1.27;;
77384;SDS011;66443;49.122;8.346;2023-04-24T02:14:13;1.57;;;1.47;;
77384;SDS011;66443;49.122;8.346;2023-04-24T02:16:38;1.97;;;1.53;;
77384;SDS011;66443;49.122;8.346;2023-04-24T02:19:03;1.67;;;1.47;;
77384;SDS011;66443;49.122;8.346;2023-04-24T02:21:29;1.50;;;1.40;;
77384;SDS011;66443;49.122;8.346;2023-04-24T02:23:55;1.63;;;1.33;;
77384;SDS011;66443;49.122;8.346;2023-04-24T02:26:21;2.43;;;1.23;;
77384;SDS011;66443;49.122;8.346;2023-04-24T02:28:46;1.80;;;1.70;;
77384;SDS011;66443;49.122;8.346;2023-04-24T02:31:11;1.53;;;1.43;;
77384;SDS011;66443;49.122;8.346;2023-04-24T02:33:36;1.43;;;1.20;;
77384;SDS011;66443;49.122;8.346;2023-04-24T02:36:02;2.27;;;1.47;;
77384;SDS011;66443;49.122;8.346;2023-04-24T02:38:28;1.47;;;1.37;;
77384;SDS011;66443;49.122;8.346;2023-04-24T02:40:53;1.80;;;1.23;;
77384;SDS011;66443;49.122;8.346;2023-04-24T02:43:18;1.63;;;1.20;;
77384;SDS011;66443;49.122;8.346;2023-04-24T02:45:43;2.20;;;1.60;;
77384;SDS011;66443;49.122;8.346;2023-04-24T02:48:09;1.60;;;1.50;;
77384;SDS011;66443;49.122;8.346;2023-04-24T02:50:34;2.93;;;1.50;;
77384;SDS011;66443;49.122;8.346;2023-04-24T02:52:59;1.83;;;1.40;;
77384;SDS011;66443;49.122;8.346;2023-04-24T02:55:24;2.60;;;1.90;;
77384;SDS011;66443;49.122;8.346;2023-04-24T02:57:50;4.37;;;2.93;;
77384;SDS011;66443;49.122;8.346;2023-04-24T03:00:15;1.67;;;1.50;;
77384;SDS011;66443;49.122;8.346;2023-04-24T03:02:40;2.73;;;1.60;;
77384;SDS011;66443;49.122;8.346;2023-04-24T03:05:05;7.00;;;2.43;;
77384;SDS011;66443;49.122;8.346;2023-04-24T03:25:18;4.17;;;3.13;;
77384;SDS011;66443;49.122;8.346;2023-04-24T03:27:46;5.13;;;4.73;;
77384;SDS011;66443;49.122;8.346;2023-04-24T03:30:11;3.70;;;3.30;;
77384;SDS011;66443;49.122;8.346;2023-04-24T03:32:36;4.10;;;3.70;;
77384;SDS011;66443;49.122;8.346;2023-04-24T03:35:04;3.90;;;3.60;;
77384;SDS011;66443;49.122;8.346;2023-04-24T03:37:29;4.13;;;3.77;;
77384;SDS011;66443;49.122;8.346;2023-04-24T03:39:54;4.60;;;4.20;;
77384;SDS011;66443;49.122;8.346;2023-04-24T03:42:19;4.13;;;3.73;;
77384;SDS011;66443;49.122;8.346;2023-04-24T03:44:45;4.30;;;4.00;;
77384;SDS011;66443;49.122;8.346;2023-04-24T03:47:10;4.73;;;4.33;;
77384;SDS011;66443;49.122;8.346;2023-04-24T03:49:35;6.45;;;5.85;;
77384;SDS011;66443;49.122;8.346;2023-04-24T03:52:00;5.80;;;5.27;;
77384;SDS011;66443;49.122;8.346;2023-04-24T03:54:26;6.10;;;4.17;;
77384;SDS011;66443;49.122;8.346;2023-04-24T03:56:51;6.43;;;4.13;;
77384;SDS011;66443;49.122;8.346;2023-04-24T03:59:16;4.70;;;4.30;;
77384;SDS011;66443;49.122;8.346;2023-04-24T04:01:41;4.20;;;3.90;;
77384;SDS011;66443;49.122;8.346;2023-04-24T04:04:06;5.23;;;4.10;;
77384;SDS011;66443;49.122;8.346;2023-04-24T04:06:32;4.43;;;4.03;;
77384;SDS011;66443;49.122;8.346;2023-04-24T04:08:58;4.53;;;4.13;;
77384;SDS011;66443;49.122;8.346;2023-04-24T04:11:24;4.30;;;3.90;;
77384;SDS011;66443;49.122;8.346;2023-04-24T04:13:49;4.83;;;4.30;;
77384;SDS011;66443;49.122;8.346;2023-04-24T04:16:14;4.77;;;4.37;;
77384;SDS011;66443;49.122;8.346;2023-04-24T04:18:41;4.57;;;4.20;;
77384;SDS011;66443;49.122;8.346;2023-04-24T04:21:07;5.43;;;4.93;;
77384;SDS011;66443;49.122;8.346;2023-04-24T04:23:32;4.80;;;4.40;;
77384;SDS011;66443;49.122;8.346;2023-04-24T04:25:57;4.77;;;4.23;;
77384;SDS011;66443;49.122;8.346;2023-04-24T04:28:23;4.57;;;4.13;;
77384;SDS011;66443;49.122;8.346;2023-04-24T04:30:49;4.03;;;3.67;;
77384;SDS011;66443;49.122;8.346;2023-04-24T04:33:18;4.70;;;4.30;;
77384;SDS011;66443;49.122;8.346;2023-04-24T04:35:43;4.20;;;3.80;;
77384;SDS011;66443;49.122;8.346;2023-04-24T04:38:09;4.53;;;4.13;;
77384;SDS011;66443;49.122;8.346;2023-04-24T04:40:35;4.00;;;3.70;;
77384;SDS011;66443;49.122;8.346;2023-04-24T04:43:01;5.07;;;4.57;;
77384;SDS011;66443;49.122;8.346;2023-04-24T04:45:27;5.30;;;4.83;;
77384;SDS011;66443;49.122;8.346;2023-04-24T04:47:53;5.37;;;4.77;;
77384;SDS011;66443;49.122;8.346;2023-04-24T04:50:20;4.73;;;4.27;;
77384;SDS011;66443;49.122;8.346;2023-04-24T04:52:45;4.60;;;4.20;;
77384;SDS011;66443;49.122;8.346;2023-04-24T04:55:10;5.73;;;5.13;;
77384;SDS011;66443;49.122;8.346;2023-04-24T04:57:38;5.60;;;5.10;;
77384;SDS011;66443;49.122;8.346;2023-04-24T05:00:03;5.40;;;4.90;;
77384;SDS011;66443;49.122;8.346;2023-04-24T05:02:29;6.03;;;5.43;;
77384;SDS011;66443;49.122;8.346;2023-04-24T05:04:54;5.90;;;5.30;;
77384;SDS011;66443;49.122;8.346;2023-04-24T05:07:19;8.30;;;5.80;;
77384;SDS011;66443;49.122;8.346;2023-04-24T05:09:45;5.53;;;5.13;;
77384;SDS011;66443;49.122;8.346;2023-04-24T05:12:10;7.47;;;5.97;;
77384;SDS011;66443;49.122;8.346;2023-04-24T05:14:35;5.73;;;5.23;;
77384;SDS011;66443;49.122;8.346;2023-04-24T05:17:00;6.17;;;5.60;;
77384;SDS011;66443;49.122;8.346;2023-04-24T05:19:26;5.53;;;5.00;;
77384;SDS011;66443;49.122;8.346;2023-04-24T05:21:51;5.73;;;5.23;;
77384;SDS011;66443;49.122;8.346;2023-04-24T05:24:16;6.67;;;5.20;;
77384;SDS011;66443;49.122;8.346;2023-04-24T05:26:41;5.70;;;5.20;;
77384;SDS011;66443;49.122;8.346;2023-04-24T05:29:06;6.00;;;5.40;;
77384;SDS011;66443;49.122;8.346;2023-04-24T05:31:31;5.03;;;4.63;;
77384;SDS011;66443;49.122;8.346;2023-04-24T05:33:57;5.23;;;4.67;;
77384;SDS011;66443;49.122;8.346;2023-04-24T05:36:22;5.53;;;5.03;;
77384;SDS011;66443;49.122;8.346;2023-04-24T05:38:47;5.47;;;4.97;;
77384;SDS011;66443;49.122;8.346;2023-04-24T05:41:12;5.00;;;4.60;;
77384;SDS011;66443;49.122;8.346;2023-04-24T05:43:37;4.60;;;4.20;;
77384;SDS011;66443;49.122;8.346;2023-04-24T05:46:03;4.90;;;4.57;;
77384;SDS011;66443;49.122;8.346;2023-04-24T05:48:28;4.30;;;3.90;;
77384;SDS011;66443;49.122;8.346;2023-04-24T05:50:53;4.73;;;4.37;;
77384;SDS011;66443;49.122;8.346;2023-04-24T05:53:18;4.67;;;4.37;;
77384;SDS011;66443;49.122;8.346;2023-04-24T05:55:44;4.30;;;4.00;;
77384;SDS011;66443;49.122;8.346;2023-04-24T05:58:09;5.03;;;4.53;;
77384;SDS011;66443;49.122;8.346;2023-04-24T06:00:35;3.93;;;3.63;;
77384;SDS011;66443;49.122;8.346;2023-04-24T06:03:00;3.93;;;3.60;;
77384;SDS011;66443;49.122;8.346;2023-04-24T06:05:25;4.03;;;3.67;;
77384;SDS011;66443;49.122;8.346;2023-04-24T06:07:51;4.50;;;4.20;;
77384;SDS011;66443;49.122;8.346;2023-04-24T06:10:16;4.40;;;4.00;;
77384;SDS011;66443;49.122;8.346;2023-04-24T06:12:41;4.27;;;3.90;;
77384;SDS011;66443;49.122;8.346;2023-04-24T06:15:06;4.23;;;3.83;;
77384;SDS011;66443;49.122;8.346;2023-04-24T06:17:32;3.37;;;3.17;;
77384;SDS011;66443;49.122;8.346;2023-04-24T06:19:57;3.53;;;3.23;;
77384;SDS011;66443;49.122;8.346;2023-04-24T06:22:22;4.53;;;3.40;;
77384;SDS011;66443;49.122;8.346;2023-04-24T06:24:47;3.67;;;3.37;;
77384;SDS011;66443;49.122;8.346;2023-04-24T06:27:13;4.10;;;3.27;;
77384;SDS011;66443;49.122;8.346;2023-04-24T06:29:38;3.30;;;3.00;;
77384;SDS011;66443;49.122;8.346;2023-04-24T06:32:04;3.67;;;3.30;;
77384;SDS011;66443;49.122;8.346;2023-04-24T06:34:30;3.83;;;3.47;;
77384;SDS011;66443;49.122;8.346;2023-04-24T06:36:55;4.13;;;3.80;;
77384;SDS011;66443;49.122;8.346;2023-04-24T06:39:21;3.20;;;3.00;;
77384;SDS011;66443;49.122;8.346;2023-04-24T06:41:46;3.50;;;3.20;;
77384;SDS011;66443;49.122;8.346;2023-04-24T06:44:11;3.10;;;2.90;;
77384;SDS011;66443;49.122;8.346;2023-04-24T06:46:36;3.53;;;3.30;;
77384;SDS011;66443;49.122;8.346;2023-04-24T06:49:01;3.17;;;2.97;;
77384;SDS011;66443;49.122;8.346;2023-04-24T06:51:27;2.83;;;2.63;;
77384;SDS011;66443;49.122;8.346;2023-04-24T06:53:55;2.60;;;2.40;;
77384;SDS011;66443;49.122;8.346;2023-04-24T06:56:23;2.93;;;2.73;;
77384;SDS011;66443;49.122;8.346;2023-04-24T06:58:48;2.80;;;2.60;;
77384;SDS011;66443;49.122;8.346;2023-04-24T07:01:13;2.10;;;2.00;;
77384;SDS011;66443;49.122;8.346;2023-04-24T07:03:39;2.60;;;2.40;;
77384;SDS011;66443;49.122;8.346;2023-04-24T07:06:04;2.53;;;2.33;;
77384;SDS011;66443;49.122;8.346;2023-04-24T07:08:30;2.10;;;2.00;;
77384;SDS011;66443;49.122;8.346;2023-04-24T07:10:58;2.57;;;2.37;;
77384;SDS011;66443;49.122;8.346;2023-04-24T07:13:23;4.10;;;2.30;;
77384;SDS011;66443;49.122;8.346;2023-04-24T07:15:48;2.47;;;2.27;;
77384;SDS011;66443;49.122;8.346;2023-04-24T07:18:15;2.37;;;2.17;;
77384;SDS011;66443;49.122;8.346;2023-04-24T07:20:41;1.97;;;1.83;;
77384;SDS011;66443;49.122;8.346;2023-04-24T07:23:06;3.03;;;1.83;;
77384;SDS011;66443;49.122;8.346;2023-04-24T07:25:31;2.87;;;1.53;;
77384;SDS011;66443;49.122;8.346;2023-04-24T07:27:56;2.47;;;1.90;;
77384;SDS011;66443;49.122;8.346;2023-04-24T07:30:22;1.83;;;1.73;;
77384;SDS011;66443;49.122;8.346;2023-04-24T07:32:47;29.43;;;4.90;;
77384;SDS011;66443;49.122;8.346;2023-04-24T07:35:12;2.30;;;1.80;;
77384;SDS011;66443;49.122;8.346;2023-04-24T07:37:37;10.23;;;3.03;;
77384;SDS011;66443;49.122;8.346;2023-04-24T07:40:02;1.80;;;1.70;;
77384;SDS011;66443;49.122;8.346;2023-04-24T07:42:28;3.53;;;2.87;;
77384;SDS011;66443;49.122;8.346;2023-04-24T07:44:55;2.80;;;2.07;;
77384;SDS011;66443;49.122;8.346;2023-04-24T07:47:20;2.83;;;2.50;;
77384;SDS011;66443;49.122;8.346;2023-04-24T07:49:45;1.60;;;1.50;;
77384;SDS011;66443;49.122;8.346;2023-04-24T07:52:10;1.67;;;1.57;;
77384;SDS011;66443;49.122;8.346;2023-04-24T07:54:36;1.43;;;1.33;;
77384;SDS011;66443;49.122;8.346;2023-04-24T07:57:02;4.67;;;1.40;;
77384;SDS011;66443;49.122;8.346;2023-04-24T07:59:27;2.03;;;1.40;;
77384;SDS011;66443;49.122;8.346;2023-04-24T08:01:53;1.67;;;1.53;;
77384;SDS011;66443;49.122;8.346;2023-04-24T08:04:19;4.20;;;1.83;;
77384;SDS011;66443;49.122;8.346;2023-04-24T08:06:44;3.77;;;1.53;;
77384;SDS011;66443;49.122;8.346;2023-04-24T08:09:09;2.03;;;1.60;;
77384;SDS011;66443;49.122;8.346;2023-04-24T08:11:35;2.70;;;1.70;;
77384;SDS011;66443;49.122;8.346;2023-04-24T08:14:00;2.20;;;1.57;;
77384;SDS011;66443;49.122;8.346;2023-04-24T08:16:25;1.70;;;1.60;;
77384;SDS011;66443;49.122;8.346;2023-04-24T08:18:51;2.47;;;1.57;;
77384;SDS011;66443;49.122;8.346;2023-04-24T08:21:16;2.17;;;1.80;;
77384;SDS011;66443;49.122;8.346;2023-04-24T08:23:43;1.40;;;1.30;;
77384;SDS011;66443;49.122;8.346;2023-04-24T08:26:09;2.57;;;1.10;;
77384;SDS011;66443;49.122;8.346;2023-04-24T08:28:34;2.37;;;1.47;;
77384;SDS011;66443;49.122;8.346;2023-04-24T08:30:59;1.70;;;1.60;;
77384;SDS011;66443;49.122;8.346;2023-04-24T08:33:24;1.77;;;1.47;;
77384;SDS011;66443;49.122;8.346;2023-04-24T08:35:50;1.60;;;1.20;;
77384;SDS011;66443;49.122;8.346;2023-04-24T08:38:15;2.17;;;1.50;;
77384;SDS011;66443;49.122;8.346;2023-04-24T08:40:40;2.03;;;1.40;;
77384;SDS011;66443;49.122;8.346;2023-04-24T08:43:06;1.50;;;1.40;;
77384;SDS011;66443;49.122;8.346;2023-04-24T08:45:32;1.67;;;1.40;;
77384;SDS011;66443;49.122;8.346;2023-04-24T08:47:57;1.40;;;1.30;;
77384;SDS011;66443;49.122;8.346;2023-04-24T08:50:23;1.60;;;1.50;;
77384;SDS011;66443;49.122;8.346;2023-04-24T08:52:52;1.70;;;1.60;;
77384;SDS011;66443;49.122;8.346;2023-04-24T08:55:21;1.10;;;1.10;;
77384;SDS011;66443;49.122;8.346;2023-04-24T08:57:50;1.70;;;1.60;;
77384;SDS011;66443;49.122;8.346;2023-04-24T09:00:16;1.30;;;1.20;;
77384;SDS011;66443;49.122;8.346;2023-04-24T09:02:41;1.30;;;1.30;;
77384;SDS011;66443;49.122;8.346;2023-04-24T09:05:08;2.37;;;1.40;;
77384;SDS011;66443;49.122;8.346;2023-04-24T09:07:34;2.00;;;1.60;;
77384;SDS011;66443;49.122;8.346;2023-04-24T09:10:01;2.33;;;2.20;;
77384;SDS011;66443;49.122;8.346;2023-04-24T09:12:26;3.10;;;1.60;;
77384;SDS011;66443;49.122;8.346;2023-04-24T09:14:51;2.67;;;1.70;;
77384;SDS011;66443;49.122;8.346;2023-04-24T09:17:17;1.70;;;1.60;;
77384;SDS011;66443;49.122;8.346;2023-04-24T09:19:42;2.20;;;1.87;;
77384;SDS011;66443;49.122;8.346;2023-04-24T09:22:07;3.50;;;2.07;;
77384;SDS011;66443;49.122;8.346;2023-04-24T09:24:33;2.07;;;1.90;;
77384;SDS011;66443;49.122;8.346;2023-04-24T09:26:59;3.10;;;1.97;;
77384;SDS011;66443;49.122;8.346;2023-04-24T09:29:26;6.70;;;2.13;;
77384;SDS011;66443;49.122;8.346;2023-04-24T09:31:51;2.40;;;2.20;;
77384;SDS011;66443;49.122;8.346;2023-04-24T09:34:23;2.30;;;2.10;;
77384;SDS011;66443;49.122;8.346;2023-04-24T09:36:48;2.10;;;2.00;;
77384;SDS011;66443;49.122;8.346;2023-04-24T09:39:15;3.37;;;2.13;;
77384;SDS011;66443;49.122;8.346;2023-04-24T09:41:54;2.33;;;2.13;;
77384;SDS011;66443;49.122;8.346;2023-04-24T09:44:22;3.03;;;2.40;;
77384;SDS011;66443;49.122;8.346;2023-04-24T09:46:51;2.27;;;1.93;;
77384;SDS011;66443;49.122;8.346;2023-04-24T09:49:20;2.27;;;2.07;;
77384;SDS011;66443;49.122;8.346;2023-04-24T09:51:45;3.40;;;2.70;;
77384;SDS011;66443;49.122;8.346;2023-04-24T09:54:13;2.83;;;2.63;;
77384;SDS011;66443;49.122;8.346;2023-04-24T09:56:41;3.73;;;3.43;;
77384;SDS011;66443;49.122;8.346;2023-04-24T09:59:07;2.63;;;2.30;;
77384;SDS011;66443;49.122;8.346;2023-04-24T10:01:32;4.20;;;2.33;;
77384;SDS011;66443;49.122;8.346;2023-04-24T10:03:57;2.23;;;2.13;;
77384;SDS011;66443;49.122;8.346;2023-04-24T10:06:25;3.90;;;2.50;;
77384;SDS011;66443;49.122;8.346;2023-04-24T10:08:55;3.87;;;2.83;;
77384;SDS011;66443;49.122;8.346;2023-04-24T10:11:21;2.60;;;2.40;;
77384;SDS011;66443;49.122;8.346;2023-04-24T10:13:46;3.93;;;2.80;;
77384;SDS011;66443;49.122;8.346;2023-04-24T10:16:11;3.13;;;2.83;;
77384;SDS011;66443;49.122;8.346;2023-04-24T10:18:37;3.03;;;2.70;;
77384;SDS011;66443;49.122;8.346;2023-04-24T10:21:04;3.73;;;3.00;;
77384;SDS011;66443;49.122;8.346;2023-04-24T10:23:30;3.40;;;3.13;;
77384;SDS011;66443;49.122;8.346;2023-04-24T10:25:55;3.10;;;2.90;;
77384;SDS011;66443;49.122;8.346;2023-04-24T10:28:21;2.97;;;2.77;;
77384;SDS011;66443;49.122;8.346;2023-04-24T10:30:47;3.23;;;3.00;;
77384;SDS011;66443;49.122;8.346;2023-04-24T10:33:12;3.13;;;2.80;;
77384;SDS011;66443;49.122;8.346;2023-04-24T10:35:40;3.70;;;3.40;;
77384;SDS011;66443;49.122;8.346;2023-04-24T10:38:08;3.23;;;2.93;;
77384;SDS011;66443;49.122;8.346;2023-04-24T10:40:34;3.00;;;2.80;;
77384;SDS011;66443;49.122;8.346;2023-04-24T10:43:01;3.67;;;3.37;;
77384;SDS011;66443;49.122;8.346;2023-04-24T10:45:26;3.90;;;3.50;;
77384;SDS011;66443;49.122;8.346;2023-04-24T10:47:52;2.87;;;2.57;;
77384;SDS011;66443;49.122;8.346;2023-04-24T10:50:18;3.17;;;2.87;;
77384;SDS011;66443;49.122;8.346;2023-04-24T10:52:44;4.20;;;3.00;;
77384;SDS011;66443;49.122;8.346;2023-04-24T10:55:10;2.80;;;2.60;;
77384;SDS011;66443;49.122;8.346;2023-04-24T10:57:37;3.40;;;3.10;;
77384;SDS011;66443;49.122;8.346;2023-04-24T11:00:24;2.90;;;2.37;;
77384;SDS011;66443;49.122;8.346;2023-04-24T11:02:48;2.90;;;2.70;;
77384;SDS011;66443;49.122;8.346;2023-04-24T11:05:18;2.80;;;2.60;;
77384;SDS011;66443;49.122;8.346;2023-04-24T11:10:28;2.33;;;2.13;;
77384;SDS011;66443;49.122;8.346;2023-04-24T11:12:53;3.07;;;2.80;;
77384;SDS011;66443;49.122;8.346;2023-04-24T11:15:18;3.13;;;2.93;;
77384;SDS011;66443;49.122;8.346;2023-04-24T11:17:45;2.80;;;2.60;;
77384;SDS011;66443;49.122;8.346;2023-04-24T11:20:11;2.40;;;2.20;;
77384;SDS011;66443;49.122;8.346;2023-04-24T11:22:37;2.93;;;2.63;;
77384;SDS011;66443;49.122;8.346;2023-04-24T11:25:03;4.67;;;3.17;;
77384;SDS011;66443;49.122;8.346;2023-04-24T11:27:38;3.33;;;3.03;;
77384;SDS011;66443;49.122;8.346;2023-04-24T11:30:03;3.07;;;2.77;;
77384;SDS011;66443;49.122;8.346;2023-04-24T11:33:02;3.67;;;3.37;;
77384;SDS011;66443;49.122;8.346;2023-04-24T11:35:20;3.70;;;3.40;;
77384;SDS011;66443;49.122;8.346;2023-04-24T11:37:47;3.50;;;3.20;;
77384;SDS011;66443;49.122;8.346;2023-04-24T11:40:14;3.13;;;2.80;;
77384;SDS011;66443;49.122;8.346;2023-04-24T11:42:44;3.30;;;3.00;;
77384;SDS011;66443;49.122;8.346;2023-04-24T11:45:21;3.40;;;2.97;;
77384;SDS011;66443;49.122;8.346;2023-04-24T11:47:46;3.67;;;3.33;;
77384;SDS011;66443;49.122;8.346;2023-04-24T11:50:16;3.17;;;2.90;;
77384;SDS011;66443;49.122;8.346;2023-04-24T11:52:42;2.93;;;2.33;;
77384;SDS011;66443;49.122;8.346;2023-04-24T11:55:29;3.33;;;2.57;;
77384;SDS011;66443;49.122;8.346;2023-04-24T11:57:54;4.27;;;2.53;;
77384;SDS011;66443;49.122;8.346;2023-04-24T12:02:46;2.77;;;2.57;;
77384;SDS011;66443;49.122;8.346;2023-04-24T12:05:25;6.17;;;3.00;;
77384;SDS011;66443;49.122;8.346;2023-04-24T12:07:50;3.60;;;2.97;;
77384;SDS011;66443;49.122;8.346;2023-04-24T12:10:20;5.07;;;3.17;;
77384;SDS011;66443;49.122;8.346;2023-04-24T12:12:45;3.43;;;2.97;;
77384;SDS011;66443;49.122;8.346;2023-04-24T12:15:11;3.63;;;2.77;;
77384;SDS011;66443;49.122;8.346;2023-04-24T12:17:40;3.10;;;2.20;;
77384;SDS011;66443;49.122;8.346;2023-04-24T12:20:06;4.43;;;2.50;;
77384;SDS011;66443;49.122;8.346;2023-04-24T12:22:51;3.40;;;2.50;;
77384;SDS011;66443;49.122;8.346;2023-04-24T12:25:19;2.70;;;2.50;;
77384;SDS011;66443;49.122;8.346;2023-04-24T12:27:45;2.83;;;2.60;;
77384;SDS011;66443;49.122;8.346;2023-04-24T12:30:12;2.93;;;2.57;;
77384;SDS011;66443;49.122;8.346;2023-04-24T12:32:41;4.40;;;2.43;;
77384;SDS011;66443;49.122;8.346;2023-04-24T12:35:07;2.40;;;2.20;;
77384;SDS011;66443;49.122;8.346;2023-04-24T12:37:33;3.03;;;2.57;;
77384;SDS011;66443;49.122;8.346;2023-04-24T12:40:11;2.60;;;2.40;;
77384;SDS011;66443;49.122;8.346;2023-04-24T12:42:43;4.07;;;2.53;;
77384;SDS011;66443;49.122;8.346;2023-04-24T12:45:09;2.37;;;2.17;;
77384;SDS011;66443;49.122;8.346;2023-04-24T12:47:36;3.00;;;2.67;;
77384;SDS011;66443;49.122;8.346;2023-04-24T12:50:02;3.07;;;2.83;;
77384;SDS011;66443;49.122;8.346;2023-04-24T12:52:28;4.07;;;2.83;;
77384;SDS011;66443;49.122;8.346;2023-04-24T12:54:54;2.93;;;2.53;;
77384;SDS011;66443;49.122;8.346;2023-04-24T12:57:20;2.60;;;2.40;;
77384;SDS011;66443;49.122;8.346;2023-04-24T12:59:45;2.77;;;2.40;;
77384;SDS011;66443;49.122;8.346;2023-04-24T13:02:10;3.20;;;3.00;;
77384;SDS011;66443;49.122;8.346;2023-04-24T13:04:36;3.00;;;2.70;;
77384;SDS011;66443;49.122;8.346;2023-04-24T13:07:01;4.33;;;2.70;;
77384;SDS011;66443;49.122;8.346;2023-04-24T13:09:27;3.63;;;2.57;;
77384;SDS011;66443;49.122;8.346;2023-04-24T13:11:52;3.40;;;2.70;;
77384;SDS011;66443;49.122;8.346;2023-04-24T13:14:17;2.70;;;2.50;;
77384;SDS011;66443;49.122;8.346;2023-04-24T13:16:42;2.20;;;2.10;;
77384;SDS011;66443;49.122;8.346;2023-04-24T13:19:07;2.33;;;2.13;;
77384;SDS011;66443;49.122;8.346;2023-04-24T13:21:33;2.00;;;1.90;;
77384;SDS011;66443;49.122;8.346;2023-04-24T13:23:58;2.00;;;1.90;;
77384;SDS011;66443;49.122;8.346;2023-04-24T13:26:24;2.27;;;2.10;;
77384;SDS011;66443;49.122;8.346;2023-04-24T13:28:49;2.13;;;1.90;;
77384;SDS011;66443;49.122;8.346;2023-04-24T13:31:14;1.47;;;1.37;;
77384;SDS011;66443;49.122;8.346;2023-04-24T13:33:40;1.73;;;1.63;;
77384;SDS011;66443;49.122;8.346;2023-04-24T13:36:05;2.90;;;2.00;;
77384;SDS011;66443;49.122;8.346;2023-04-24T13:38:30;2.60;;;2.40;;
77384;SDS011;66443;49.122;8.346;2023-04-24T13:40:55;2.70;;;2.23;;
77384;SDS011;66443;49.122;8.346;2023-04-24T13:43:21;1.93;;;1.80;;
77384;SDS011;66443;49.122;8.346;2023-04-24T13:45:46;2.03;;;1.87;;
77384;SDS011;66443;49.122;8.346;2023-04-24T13:48:11;2.20;;;2.00;;
77384;SDS011;66443;49.122;8.346;2023-04-24T13:50:36;2.27;;;2.13;;
77384;SDS011;66443;49.122;8.346;2023-04-24T13:53:02;2.37;;;2.17;;
77384;SDS011;66443;49.122;8.346;2023-04-24T13:55:27;3.23;;;2.13;;
77384;SDS011;66443;49.122;8.346;2023-04-24T13:57:52;2.50;;;2.40;;
77384;SDS011;66443;49.122;8.346;2023-04-24T14:00:20;2.57;;;2.33;;
77384;SDS011;66443;49.122;8.346;2023-04-24T14:02:45;2.90;;;2.70;;
77384;SDS011;66443;49.122;8.346;2023-04-24T14:05:10;2.70;;;2.53;;
77384;SDS011;66443;49.122;8.346;2023-04-24T14:07:36;2.53;;;2.10;;
77384;SDS011;66443;49.122;8.346;2023-04-24T14:10:01;2.60;;;2.40;;
77384;SDS011;66443;49.122;8.346;2023-04-24T14:12:26;2.50;;;2.30;;
77384;SDS011;66443;49.122;8.346;2023-04-24T14:14:52;2.50;;;2.30;;
77384;SDS011;66443;49.122;8.346;2023-04-24T14:17:17;2.50;;;2.30;;
77384;SDS011;66443;49.122;8.346;2023-04-24T14:19:42;2.27;;;2.07;;
77384;SDS011;66443;49.122;8.346;2023-04-24T14:22:07;2.40;;;2.20;;
77384;SDS011;66443;49.122;8.346;2023-04-24T14:24:33;2.60;;;2.40;;
77384;SDS011;66443;49.122;8.346;2023-04-24T14:26:58;2.40;;;2.20;;
77384;SDS011;66443;49.122;8.346;2023-04-24T14:29:23;2.43;;;2.20;;
77384;SDS011;66443;49.122;8.346;2023-04-24T14:31:50;3.23;;;2.80;;
77384;SDS011;66443;49.122;8.346;2023-04-24T14:34:16;3.57;;;2.53;;
77384;SDS011;66443;49.122;8.346;2023-04-24T14:36:41;3.23;;;2.37;;
77384;SDS011;66443;49.122;8.346;2023-04-24T14:39:06;2.90;;;2.70;;
77384;SDS011;66443;49.122;8.346;2023-04-24T14:41:32;3.10;;;2.90;;
77384;SDS011;66443;49.122;8.346;2023-04-24T14:44:00;4.23;;;3.20;;
77384;SDS011;66443;49.122;8.346;2023-04-24T14:46:25;3.57;;;3.00;;
77384;SDS011;66443;49.122;8.346;2023-04-24T14:48:50;2.93;;;2.67;;
77384;SDS011;66443;49.122;8.346;2023-04-24T14:51:16;3.90;;;2.67;;
77384;SDS011;66443;49.122;8.346;2023-04-24T14:53:41;2.87;;;2.67;;
77384;SDS011;66443;49.122;8.346;2023-04-24T14:56:06;2.73;;;2.50;;
77384;SDS011;66443;49.122;8.346;2023-04-24T14:58:31;2.93;;;2.53;;
77384;SDS011;66443;49.122;8.346;2023-04-24T15:00:56;3.50;;;2.47;;
77384;SDS011;66443;49.122;8.346;2023-04-24T15:03:22;2.93;;;2.73;;
77384;SDS011;66443;49.122;8.346;2023-04-24T15:05:48;3.90;;;3.23;;